Time;durP1;ratioP1;P1;durP2;ratioP2;P2;SDS_P1;SDS_P2;PMS_P1;PMS_P2;Temp;Humidity;BMP_temperature;BMP_pressure;BME280_temperature;BME280_humidity;BME280_pressure;Samples;Min_cycle;Max_cycle;Signal;HPM_P1;HPM_P2
2022/10/18 00:02:10;;;;;;;9.05;7.00;;;;;;;25.09;44.78;102610.78;5094447;28;20023;-73
2022/10/18 00:04:36;;;;;;;13.35;7.25;;;;;;;25.20;44.72;102616.53;5094527;28;20028;-73
2022/10/18 00:07:01;;;;;;;11.05;7.07;;;;;;;25.11;44.51;102615.13;5083827;28;20147;-73
2022/10/18 00:09:27;;;;;;;10.60;7.03;;;;;;;25.11;44.57;102616.94;5088834;28;20035;-73
2022/10/18 00:11:53;;;;;;;12.18;7.05;;;;;;;25.18;43.96;102616.63;5094798;28;20474;-73
2022/10/18 00:14:18;;;;;;;11.32;7.28;;;;;;;25.16;43.81;102618.47;5094008;28;20035;-73
2022/10/18 00:16:44;;;;;;;13.07;7.75;;;;;;;24.99;44.69;102615.66;5094179;28;20391;-73
2022/10/18 00:19:09;;;;;;;10.02;6.82;;;;;;;25.05;44.75;102610.06;5091621;28;20028;-73
2022/10/18 00:21:35;;;;;;;13.25;7.95;;;;;;;24.84;44.24;102611.81;5092464;28;20031;-72
2022/10/18 00:24:00;;;;;;;11.35;7.40;;;;;;;24.85;44.57;102610.91;5092680;28;20434;-73
2022/10/18 00:26:28;;;;;;;11.68;7.65;;;;;;;24.92;44.43;102614.19;5093483;28;20038;-73
2022/10/18 00:29:04;;;;;;;13.68;6.90;;;;;;;24.97;44.50;102617.53;5093255;28;20049;-73
2022/10/18 00:31:33;;;;;;;13.70;7.75;;;;;;;24.97;44.14;102622.88;5094433;28;20020;-73
2022/10/18 00:34:02;;;;;;;13.50;7.13;;;;;;;25.01;44.15;102619.16;5094367;28;20031;-73
2022/10/18 00:36:30;;;;;;;14.13;7.35;;;;;;;24.92;44.78;102622.22;5086545;28;20048;-73
2022/10/18 00:38:56;;;;;;;11.00;7.53;;;;;;;24.85;44.59;102619.81;5092930;28;20031;-73
2022/10/18 00:41:24;;;;;;;9.18;6.85;;;;;;;24.88;44.05;102613.44;5094286;28;20016;-73
2022/10/18 00:44:02;;;;;;;7.40;6.57;;;;;;;24.81;44.22;102633.34;5094799;28;20023;-73
2022/10/18 00:46:30;;;;;;;10.30;6.78;;;;;;;24.56;44.38;102635.22;5090499;28;20055;-73
2022/10/18 00:49:00;;;;;;;9.98;6.10;;;;;;;24.57;44.38;102638.75;5091644;28;20012;-73
2022/10/18 00:51:37;;;;;;;9.68;7.35;;;;;;;24.85;43.55;102630.50;5093138;28;20047;-73
2022/10/18 00:54:02;;;;;;;13.23;6.97;;;;;;;25.15;42.55;102632.78;5092023;28;20058;-72
2022/10/18 00:56:29;;;;;;;8.50;6.00;;;;;;;24.57;43.81;102636.09;5109721;28;20024;-73
2022/10/18 00:58:55;;;;;;;12.13;6.35;;;;;;;24.79;43.97;102629.91;5109536;27;20012;-73
2022/10/18 01:01:20;;;;;;;9.85;6.05;;;;;;;24.63;44.06;102635.84;5092664;28;20039;-73
2022/10/18 01:03:47;;;;;;;11.80;6.32;;;;;;;24.30;44.81;102638.06;5093191;28;20028;-72
2022/10/18 01:06:12;;;;;;;9.82;5.95;;;;;;;24.40;44.76;102639.47;5091155;28;20050;-73
2022/10/18 01:08:56;;;;;;;8.48;5.43;;;;;;;24.65;44.34;102635.81;5090942;28;20488;-73
2022/10/18 01:11:46;;;;;;;6.22;5.18;;;;;;;24.63;44.60;102635.84;5092422;28;20024;-73
2022/10/18 01:14:38;;;;;;;8.60;4.97;;;;;;;24.82;44.63;102640.44;5093354;28;20028;-73
2022/10/18 01:17:16;;;;;;;9.23;4.80;;;;;;;24.75;44.64;102642.50;5073382;28;20040;-73
2022/10/18 01:19:41;;;;;;;7.82;4.28;;;;;;;24.74;44.85;102643.44;5102112;27;20073;-73
2022/10/18 01:22:23;;;;;;;9.65;3.92;;;;;;;24.93;44.50;102648.03;5094129;28;20032;-73
2022/10/18 01:25:07;;;;;;;5.20;3.83;;;;;;;24.83;44.40;102640.38;5108706;27;20102;-73
2022/10/18 01:27:39;;;;;;;3.13;2.80;;;;;;;24.89;44.25;102640.13;5109632;28;20070;-73
2022/10/18 01:30:26;;;;;;;3.80;3.10;;;;;;;24.90;43.64;102636.50;5092972;28;20027;-73
2022/10/18 01:32:57;;;;;;;4.60;2.60;;;;;;;24.90;43.69;102633.84;5092207;28;20066;-73
2022/10/18 01:35:30;;;;;;;6.40;2.65;;;;;;;24.69;44.14;102624.06;5091570;28;20040;-73
2022/10/18 01:38:00;;;;;;;5.13;2.53;;;;;;;24.88;43.80;102640.19;5092258;28;20019;-73
2022/10/18 01:40:28;;;;;;;3.85;2.42;;;;;;;24.59;44.69;102644.03;5092381;28;20028;-73
2022/10/18 01:42:54;;;;;;;7.45;2.53;;;;;;;23.84;46.51;102641.56;5091477;28;20115;-73
2022/10/18 01:45:22;;;;;;;4.88;2.90;;;;;;;24.11;45.68;102653.94;5092481;28;20127;-74
2022/10/18 01:47:49;;;;;;;5.82;2.95;;;;;;;24.43;44.55;102639.31;5092349;28;20498;-73
2022/10/18 01:50:27;;;;;;;2.20;2.10;;;;;;;23.92;45.60;102648.44;5092282;28;20032;-73
2022/10/18 01:52:53;;;;;;;4.22;2.97;;;;;;;24.18;45.47;102656.31;5092060;28;20491;-73
2022/10/18 01:55:24;;;;;;;4.03;2.70;;;;;;;24.65;44.25;102650.03;5091058;28;20065;-73
2022/10/18 01:58:07;;;;;;;15.43;3.05;;;;;;;24.39;44.70;102653.75;5091963;28;20472;-73
2022/10/18 02:00:39;;;;;;;;;;;;;;;24.55;44.59;102644.19;5093219;28;20105;-73
2022/10/18 02:03:22;;;;;;;10.43;2.88;;;;;;;24.39;44.82;102659.09;5090696;28;20394;-73
2022/10/18 02:06:07;;;;;;;5.50;2.45;;;;;;;24.44;44.51;102657.09;5107818;27;20027;-73
2022/10/18 02:08:36;;;;;;;6.85;2.17;;;;;;;24.52;44.21;102657.66;5092526;28;20110;-73
2022/10/18 02:11:07;;;;;;;24.83;2.67;;;;;;;24.03;45.45;102659.59;5090306;28;20039;-73
2022/10/18 02:13:39;;;;;;;12.70;2.90;;;;;;;23.77;46.28;102645.38;5090511;28;20129;-73
2022/10/18 02:16:09;;;;;;;11.43;2.60;;;;;;;23.81;45.83;102644.34;5078569;28;20024;-73
2022/10/18 02:18:46;;;;;;;12.40;3.08;;;;;;;23.83;45.65;102644.28;5090692;28;20112;-73
2022/10/18 02:21:15;;;;;;;9.48;2.83;;;;;;;24.16;45.12;102657.31;5089673;28;20020;-73
2022/10/18 02:23:43;;;;;;;11.57;3.10;;;;;;;23.98;45.35;102659.75;5090628;28;20024;-73
2022/10/18 02:26:09;;;;;;;3.90;2.60;;;;;;;23.98;45.04;102664.22;5091335;28;20032;-73
2022/10/18 02:28:34;;;;;;;3.10;2.80;;;;;;;24.06;44.50;102662.16;5086655;28;20028;-73
2022/10/18 02:31:13;;;;;;;3.35;2.35;;;;;;;24.08;44.48;102660.28;5090858;28;20496;-73
2022/10/18 02:33:51;;;;;;;4.07;2.70;;;;;;;24.02;44.41;102660.53;5088859;28;20591;-73
2022/10/18 02:36:30;;;;;;;5.95;2.40;;;;;;;23.94;44.70;102657.28;5071324;28;20035;-73
2022/10/18 02:39:02;;;;;;;3.08;2.78;;;;;;;23.78;45.12;102660.50;5105663;28;20107;-73
2022/10/18 02:41:30;;;;;;;7.75;2.88;;;;;;;24.05;44.21;102657.72;5091966;28;20545;-73
2022/10/18 02:43:55;;;;;;;3.47;2.30;;;;;;;23.70;44.83;102667.91;5091535;28;20468;-73
2022/10/18 02:46:20;;;;;;;3.22;2.63;;;;;;;23.64;44.87;102673.47;5092098;28;20032;-73
2022/10/18 02:48:46;;;;;;;6.68;2.70;;;;;;;23.75;44.90;102663.25;5091076;28;20492;-73
2022/10/18 02:51:11;;;;;;;3.60;2.30;;;;;;;23.63;44.63;102664.59;5090569;28;20485;-73
2022/10/18 02:53:36;;;;;;;3.33;2.53;;;;;;;23.63;44.95;102663.69;5090763;28;20565;-73
2022/10/18 02:56:02;;;;;;;6.78;2.95;;;;;;;23.53;44.57;102663.16;5090658;28;20040;-73
2022/10/18 02:58:28;;;;;;;4.40;3.22;;;;;;;23.56;44.71;102668.38;5090303;28;20376;-73
2022/10/18 03:00:53;;;;;;;4.15;3.00;;;;;;;23.41;45.19;102664.50;5089526;28;20143;-72
2022/10/18 03:03:19;;;;;;;3.95;2.58;;;;;;;23.59;44.74;102667.41;5088998;28;20484;-74
2022/10/18 03:05:48;;;;;;;2.63;2.42;;;;;;;23.61;44.82;102665.56;5091592;28;20124;-73
2022/10/18 03:08:13;;;;;;;2.67;2.40;;;;;;;23.34;45.06;102668.28;5092105;28;20498;-73
2022/10/18 03:10:38;;;;;;;2.88;2.58;;;;;;;23.44;44.74;102669.72;5090037;28;20097;-73
2022/10/18 03:13:04;;;;;;;6.22;3.10;;;;;;;23.30;44.74;102663.97;5084969;28;20024;-73
2022/10/18 03:15:29;;;;;;;5.13;3.35;;;;;;;23.39;44.38;102658.31;5087583;28;20047;-73
2022/10/18 03:17:54;;;;;;;4.13;2.60;;;;;;;23.29;44.65;102659.59;5086828;28;20512;-73
2022/10/18 03:20:20;;;;;;;4.00;2.72;;;;;;;23.31;44.72;102663.91;5090419;28;20028;-73
2022/10/18 03:22:45;;;;;;;5.55;2.70;;;;;;;23.38;44.52;102657.47;5086113;28;20119;-73
2022/10/18 03:25:11;;;;;;;3.80;3.33;;;;;;;23.18;44.65;102663.47;5073221;28;20032;-73
2022/10/18 03:27:36;;;;;;;9.02;3.08;;;;;;;22.98;44.91;102665.94;5089222;28;20510;-73
2022/10/18 03:30:04;;;;;;;4.15;3.40;;;;;;;23.24;44.86;102667.72;5088875;28;20594;-73
2022/10/18 03:32:30;;;;;;;5.85;3.20;;;;;;;23.16;44.72;102669.78;5085836;28;20032;-72
2022/10/18 03:34:55;;;;;;;4.88;2.88;;;;;;;23.32;44.42;102672.81;5108926;27;20392;-73
2022/10/18 03:37:20;;;;;;;6.63;4.05;;;;;;;23.30;44.63;102672.88;5106764;28;20361;-73
2022/10/18 03:39:46;;;;;;;5.82;3.35;;;;;;;23.29;44.73;102675.59;5088809;28;20020;-73
2022/10/18 03:42:11;;;;;;;6.13;3.22;;;;;;;23.19;45.04;102681.25;5089796;28;20035;-73
2022/10/18 03:44:36;;;;;;;6.95;3.30;;;;;;;23.14;44.69;102677.84;5089355;28;20164;-73
2022/10/18 03:47:02;;;;;;;10.70;3.53;;;;;;;23.00;45.64;102677.44;5090566;28;20111;-73
2022/10/18 03:49:27;;;;;;;6.20;3.55;;;;;;;23.24;44.99;102669.53;5090862;28;20472;-73
2022/10/18 03:51:53;;;;;;;24.63;3.60;;;;;;;23.33;44.50;102661.22;5089571;28;20374;-73
2022/10/18 03:54:18;;;;;;;10.30;3.65;;;;;;;23.29;44.85;102670.25;5089529;28;20117;-73
2022/10/18 03:56:43;;;;;;;12.18;3.70;;;;;;;23.17;45.15;102672.41;5090207;28;20031;-73
2022/10/18 03:59:09;;;;;;;14.00;2.88;;;;;;;23.63;44.13;102663.69;5088443;28;20024;-73
2022/10/18 04:01:34;;;;;;;5.32;3.13;;;;;;;23.70;43.98;102674.09;5091655;28;20028;-73
2022/10/18 04:04:00;;;;;;;5.10;3.00;;;;;;;23.54;44.16;102668.44;5091787;28;20032;-73
2022/10/18 04:06:25;;;;;;;5.82;3.20;;;;;;;23.57;44.13;102669.28;5089537;28;20034;-73
2022/10/18 04:08:50;;;;;;;4.93;2.92;;;;;;;23.60;44.21;102670.00;5088773;28;20031;-73
2022/10/18 04:11:16;;;;;;;4.68;2.60;;;;;;;23.59;43.93;102672.75;5090229;28;20085;-73
2022/10/18 04:13:41;;;;;;;4.25;2.70;;;;;;;23.43;44.51;102662.63;5089384;28;20047;-73
2022/10/18 04:16:06;;;;;;;4.38;2.65;;;;;;;23.27;44.38;102656.09;5089158;28;20581;-73
2022/10/18 04:18:32;;;;;;;5.10;2.67;;;;;;;23.27;44.74;102650.75;5090638;28;20023;-73
2022/10/18 04:20:57;;;;;;;3.10;2.42;;;;;;;23.26;44.40;102659.66;5099769;28;20063;-73
2022/10/18 04:23:23;;;;;;;5.22;2.85;;;;;;;23.32;44.07;102655.00;5090100;28;20438;-73
2022/10/18 04:25:48;;;;;;;7.40;2.55;;;;;;;23.29;44.23;102664.94;5091520;28;20024;-73
2022/10/18 04:28:13;;;;;;;5.85;2.75;;;;;;;23.38;44.01;102664.56;5089068;28;20012;-73
2022/10/18 04:30:39;;;;;;;5.68;2.90;;;;;;;23.20;44.36;102668.75;5088973;28;20028;-73
2022/10/18 04:33:04;;;;;;;7.55;3.17;;;;;;;23.02;44.72;102668.44;5089338;28;20460;-73
2022/10/18 04:35:30;;;;;;;5.78;3.08;;;;;;;23.01;44.33;102652.47;5105707;28;20043;-73
2022/10/18 04:37:55;;;;;;;6.32;3.00;;;;;;;22.90;44.77;102662.66;5106771;28;20088;-73
2022/10/18 04:40:20;;;;;;;6.93;3.00;;;;;;;22.97;44.40;102666.84;5098777;28;20044;-73
2022/10/18 04:42:46;;;;;;;12.80;3.30;;;;;;;22.80;45.09;102673.59;5088624;28;20030;-73
2022/10/18 04:45:12;;;;;;;29.52;4.60;;;;;;;22.86;44.54;102675.19;5092784;28;20088;-73
2022/10/18 04:47:37;;;;;;;16.77;4.25;;;;;;;22.90;44.64;102681.31;5094197;28;20036;-73
2022/10/18 04:50:04;;;;;;;12.93;3.70;;;;;;;22.81;44.81;102690.50;5090572;28;20094;-73
2022/10/18 04:52:29;;;;;;;9.85;4.07;;;;;;;22.78;44.65;102683.47;5093943;28;20039;-73
2022/10/18 04:54:55;;;;;;;9.35;4.60;;;;;;;22.66;44.73;102678.53;5091831;28;20048;-73
2022/10/18 04:57:20;;;;;;;11.73;4.00;;;;;;;22.57;44.82;102673.47;5091818;28;20468;-73
2022/10/18 04:59:46;;;;;;;11.25;5.03;;;;;;;22.63;44.36;102675.97;5092339;28;20486;-72
2022/10/18 05:02:11;;;;;;;12.90;4.22;;;;;;;22.75;44.74;102675.56;5092003;28;20059;-73
2022/10/18 05:04:36;;;;;;;11.35;4.72;;;;;;;22.47;44.93;102687.06;5092375;28;20085;-73
2022/10/18 05:07:02;;;;;;;10.25;5.18;;;;;;;22.44;45.05;102692.50;5094544;28;20035;-73
2022/10/18 05:09:27;;;;;;;8.00;4.65;;;;;;;22.37;45.50;102696.28;5092340;28;20123;-73
2022/10/18 05:11:52;;;;;;;13.60;5.10;;;;;;;22.65;44.65;102690.09;5092855;28;20066;-73
2022/10/18 05:14:18;;;;;;;8.55;4.30;;;;;;;22.49;44.54;102701.25;5093552;28;20028;-73
2022/10/18 05:16:43;;;;;;;12.98;4.32;;;;;;;22.40;44.68;102701.50;5091945;28;20589;-73
2022/10/18 05:19:09;;;;;;;16.27;4.55;;;;;;;22.53;44.14;102705.56;5087660;28;20024;-73
2022/10/18 05:21:34;;;;;;;27.60;5.72;;;;;;;22.08;44.96;102705.97;5092516;28;20036;-73
2022/10/18 05:24:00;;;;;;;22.88;4.80;;;;;;;22.38;44.39;102706.03;5094365;28;20084;-73
2022/10/18 05:26:26;;;;;;;6.88;4.30;;;;;;;22.18;44.68;102706.59;5096107;28;20028;-73
2022/10/18 05:28:51;;;;;;;12.25;4.00;;;;;;;22.29;44.52;102708.94;5090903;28;20028;-73
2022/10/18 05:31:17;;;;;;;6.63;3.45;;;;;;;22.27;44.43;102710.75;5090949;28;20502;-73
2022/10/18 05:33:42;;;;;;;6.95;3.20;;;;;;;22.17;44.74;102711.06;5094201;28;20078;-73
2022/10/18 05:36:08;;;;;;;4.53;3.10;;;;;;;22.00;45.10;102713.31;5090775;28;20032;-73
2022/10/18 05:38:36;;;;;;;6.80;3.72;;;;;;;22.16;44.78;102716.38;5090081;28;20031;-73
2022/10/18 05:41:03;;;;;;;10.40;3.72;;;;;;;22.09;44.48;102713.06;5089753;28;20039;-73
2022/10/18 05:43:28;;;;;;;7.78;3.83;;;;;;;21.88;45.23;102713.66;5091812;28;20035;-72
2022/10/18 05:45:53;;;;;;;9.97;3.93;;;;;;;22.13;44.48;102698.75;5092255;28;20132;-72
2022/10/18 05:48:19;;;;;;;10.15;3.78;;;;;;;22.19;44.31;102703.88;5092156;28;20032;-72
2022/10/18 05:50:44;;;;;;;6.57;4.47;;;;;;;21.83;44.63;102721.75;5091661;28;20032;-72
2022/10/18 05:53:10;;;;;;;10.75;5.45;;;;;;;21.66;45.50;102716.91;5092183;28;20052;-72
2022/10/18 05:55:35;;;;;;;15.87;5.90;;;;;;;21.79;44.83;102721.00;5083856;28;20158;-72
2022/10/18 05:58:02;;;;;;;10.23;6.03;;;;;;;21.64;45.96;102724.94;5089845;28;20457;-72
2022/10/18 06:00:28;;;;;;;12.30;5.23;;;;;;;21.94;44.82;102724.13;5091253;28;20492;-72
2022/10/18 06:02:53;;;;;;;14.77;6.23;;;;;;;21.59;45.26;102723.31;5091745;28;20028;-73
2022/10/18 06:05:19;;;;;;;16.90;4.57;;;;;;;21.66;45.55;102740.84;5090488;28;20137;-73
2022/10/18 06:07:44;;;;;;;13.17;3.80;;;;;;;21.58;45.71;102740.19;5090190;28;20074;-73
2022/10/18 06:10:09;;;;;;;31.63;5.87;;;;;;;21.43;46.18;102744.09;5108334;28;20473;-73
2022/10/18 06:12:35;;;;;;;22.90;4.95;;;;;;;21.68;45.71;102749.69;5107777;28;20077;-72
2022/10/18 06:15:00;;;;;;;14.20;4.53;;;;;;;21.83;45.11;102743.94;5093014;28;20028;-73
2022/10/18 06:17:26;;;;;;;16.97;4.30;;;;;;;22.14;44.37;102759.03;5092070;28;20028;-73
2022/10/18 06:19:51;;;;;;;6.90;3.43;;;;;;;21.77;45.06;102748.56;5092289;28;20456;-73
2022/10/18 06:22:16;;;;;;;11.93;4.10;;;;;;;21.66;45.13;102757.69;5108434;28;20030;-73
2022/10/18 06:24:42;;;;;;;7.30;3.47;;;;;;;21.72;45.31;102762.00;5093360;28;20035;-73
2022/10/18 06:27:10;;;;;;;24.80;4.00;;;;;;;21.68;45.19;102760.34;5108031;28;20472;-73
2022/10/18 06:29:37;;;;;;;17.47;4.97;;;;;;;21.71;44.86;102773.56;5093032;28;20024;-72
2022/10/18 06:32:03;;;;;;;4.77;3.30;;;;;;;21.70;44.82;102769.13;5092797;28;20039;-72
2022/10/18 06:34:29;;;;;;;10.13;4.87;;;;;;;21.69;44.86;102784.25;5092085;28;20390;-72
2022/10/18 06:36:54;;;;;;;16.73;8.27;;;;;;;21.51;45.54;102790.88;5091479;28;20024;-72
2022/10/18 06:39:20;;;;;;;18.63;9.17;;;;;;;21.45;45.32;102785.69;5092962;28;20054;-73
2022/10/18 06:41:45;;;;;;;11.53;6.83;;;;;;;21.51;45.13;102779.34;5107582;28;20517;-72
2022/10/18 06:44:13;;;;;;;10.43;4.80;;;;;;;21.57;45.20;102783.66;5108471;28;20034;-72
2022/10/18 06:46:43;;;;;;;6.80;4.37;;;;;;;21.55;45.07;102785.50;5092887;28;20468;-72
2022/10/18 06:49:09;;;;;;;9.90;5.03;;;;;;;21.23;45.65;102782.69;5108078;28;20096;-72
2022/10/18 06:51:35;;;;;;;8.47;5.90;;;;;;;21.56;44.97;102787.25;5108081;28;20076;-72
2022/10/18 06:54:00;;;;;;;8.73;4.87;;;;;;;21.47;45.64;102783.00;5107391;28;20476;-72
2022/10/18 06:56:25;;;;;;;7.40;4.10;;;;;;;21.49;45.52;102787.38;5108202;28;20035;-72
2022/10/18 06:58:51;;;;;;;8.60;4.50;;;;;;;21.79;44.70;102795.50;5091314;28;20028;-72
2022/10/18 07:01:17;;;;;;;5.33;3.77;;;;;;;21.50;45.48;102805.09;5090230;28;20036;-72
2022/10/18 07:03:44;;;;;;;22.03;7.37;;;;;;;21.17;46.17;102812.97;5108086;28;20034;-73
2022/10/18 07:06:13;;;;;;;13.20;6.30;;;;;;;21.45;45.66;102801.66;5090803;28;20070;-73
2022/10/18 07:08:39;;;;;;;7.82;4.28;;;;;;;21.59;45.21;102797.81;5091833;28;20074;-73
2022/10/18 07:11:05;;;;;;;3.87;3.07;;;;;;;21.73;45.34;102806.31;5107976;28;20488;-72
2022/10/18 07:13:32;;;;;;;5.70;3.40;;;;;;;21.63;45.38;102810.13;5107694;28;20434;-72
2022/10/18 07:16:06;;;;;;;3.77;2.83;;;;;;;21.85;44.94;102824.59;5090113;28;20058;-72
2022/10/18 07:18:34;;;;;;;6.03;3.00;;;;;;;21.79;45.05;102834.53;5092243;28;20058;-73
2022/10/18 07:21:10;;;;;;;5.20;2.67;;;;;;;21.56;45.58;102813.88;5090713;28;20034;-72
2022/10/18 07:23:38;;;;;;;3.03;2.70;;;;;;;21.47;45.82;102815.81;5090056;28;20024;-72
2022/10/18 07:26:17;;;;;;;3.80;2.60;;;;;;;21.80;44.85;102821.22;5092053;28;20035;-72
2022/10/18 07:28:45;;;;;;;3.43;2.63;;;;;;;21.91;45.01;102828.03;5090486;28;20036;-73
2022/10/18 07:31:11;;;;;;;3.30;2.53;;;;;;;21.73;45.40;102838.25;5089748;28;20027;-72
2022/10/18 07:33:37;;;;;;;4.60;3.50;;;;;;;21.85;45.45;102837.06;5090759;28;20051;-72
2022/10/18 07:36:07;;;;;;;6.27;4.33;;;;;;;21.70;45.41;102833.00;5091452;28;20531;-73
2022/10/18 07:38:33;;;;;;;8.10;4.50;;;;;;;21.89;45.27;102837.88;5090440;28;20039;-72
2022/10/18 07:41:01;;;;;;;8.97;4.90;;;;;;;22.07;44.65;102842.69;5107533;28;20039;-72
2022/10/18 07:43:27;;;;;;;11.17;5.07;;;;;;;22.12;45.16;102846.09;5091236;28;20032;-73
2022/10/18 07:45:53;;;;;;;12.53;5.77;;;;;;;22.00;45.33;102854.41;5091719;28;20027;-72
2022/10/18 07:48:19;;;;;;;10.50;6.22;;;;;;;22.17;44.78;102852.19;5107438;28;20024;-72
2022/10/18 07:50:44;;;;;;;9.17;5.60;;;;;;;21.94;45.85;102847.47;5106836;28;20122;-72
2022/10/18 07:53:09;;;;;;;14.50;5.80;;;;;;;22.22;45.35;102853.84;5091308;28;20155;-72
2022/10/18 07:55:35;;;;;;;12.20;6.27;;;;;;;22.28;45.26;102861.66;5107299;28;20078;-73
2022/10/18 07:58:00;;;;;;;15.53;6.87;;;;;;;22.22;45.78;102862.72;5089806;28;20054;-73
2022/10/18 08:00:25;;;;;;;9.20;5.47;;;;;;;22.43;45.20;102874.59;5091700;28;20085;-73
2022/10/18 08:02:58;;;;;;;9.33;4.33;;;;;;;21.83;47.20;102866.38;5107352;28;20468;-72
2022/10/18 08:05:25;;;;;;;6.30;4.32;;;;;;;22.36;46.39;102875.69;5106682;28;20023;-72
2022/10/18 08:07:50;;;;;;;5.85;4.53;;;;;;;22.60;45.50;102878.56;5106928;28;20024;-72
2022/10/18 08:10:16;;;;;;;13.45;4.40;;;;;;;22.34;46.82;102872.19;5091683;28;20016;-72
2022/10/18 08:12:41;;;;;;;9.05;3.88;;;;;;;22.72;45.87;102867.53;5106274;28;20554;-72
2022/10/18 08:15:07;;;;;;;12.13;4.57;;;;;;;22.86;45.51;102880.47;5107168;28;20020;-72
2022/10/18 08:17:33;;;;;;;11.00;5.20;;;;;;;22.91;45.92;102883.88;5107204;28;20032;-72
2022/10/18 08:19:58;;;;;;;9.43;4.82;;;;;;;23.04;45.59;102879.06;5109225;28;20012;-71
2022/10/18 08:22:24;;;;;;;11.27;4.93;;;;;;;22.87;47.26;102876.88;5111208;28;20016;-72
2022/10/18 08:24:49;;;;;;;9.05;4.57;;;;;;;23.21;46.15;102878.56;5111054;28;20027;-71
2022/10/18 08:27:15;;;;;;;10.32;4.63;;;;;;;23.01;47.56;102879.13;5094529;28;20472;-72
2022/10/18 08:29:40;;;;;;;8.90;4.80;;;;;;;23.17;46.62;102869.78;5095356;28;20020;-72
2022/10/18 08:32:06;;;;;;;12.52;4.75;;;;;;;23.32;46.10;102873.75;5094039;28;20044;-72
2022/10/18 08:34:35;;;;;;;12.43;4.20;;;;;;;23.47;45.99;102877.72;5093086;28;20047;-72
2022/10/18 08:37:01;;;;;;;11.77;4.57;;;;;;;23.53;45.99;102880.22;5110982;28;20074;-72
2022/10/18 08:39:27;;;;;;;14.00;5.35;;;;;;;23.57;46.12;102872.09;5109883;28;20016;-72
2022/10/18 08:42:18;;;;;;;11.85;5.05;;;;;;;23.62;46.67;102864.81;5110703;28;20020;-72
2022/10/18 08:44:46;;;;;;;21.75;5.65;;;;;;;23.01;47.97;102879.13;5110764;28;20020;-72
2022/10/18 08:47:17;;;;;;;8.00;4.38;;;;;;;23.63;46.96;102871.88;5110097;28;20039;-72
2022/10/18 08:49:50;;;;;;;8.65;5.50;;;;;;;23.95;46.23;102872.66;5110690;28;20028;-72
2022/10/18 08:52:31;;;;;;;17.02;5.32;;;;;;;23.81;46.76;102887.31;5093690;28;20126;-71
2022/10/18 08:55:08;;;;;;;13.52;5.20;;;;;;;23.73;48.21;102884.03;5109299;28;20047;-71
2022/10/18 08:57:34;;;;;;;12.43;5.00;;;;;;;23.90;47.52;102879.94;5110730;28;20031;-72
2022/10/18 09:00:05;;;;;;;21.58;6.32;;;;;;;24.32;46.29;102887.38;5110487;28;20021;-72
2022/10/18 09:02:54;;;;;;;20.42;6.10;;;;;;;24.54;45.70;102882.97;5092688;28;20024;-71
2022/10/18 09:05:28;;;;;;;13.68;4.68;;;;;;;24.46;45.67;102879.72;5110072;28;20480;-71
2022/10/18 09:08:15;;;;;;;12.02;4.20;;;;;;;24.38;45.75;102877.31;5093753;28;20023;-72
2022/10/18 09:10:56;;;;;;;12.63;5.75;;;;;;;24.89;44.90;102878.16;5110236;28;20028;-72
2022/10/18 09:13:31;;;;;;;13.10;3.55;;;;;;;24.43;45.01;102885.19;5110355;28;20035;-72
2022/10/18 09:16:02;;;;;;;14.73;3.65;;;;;;;24.72;44.85;102886.81;5109442;28;20055;-72
2022/10/18 09:18:54;;;;;;;9.15;3.13;;;;;;;24.80;44.21;102889.19;5094277;28;20039;-72
2022/10/18 09:21:26;;;;;;;12.18;1.90;;;;;;;24.79;43.01;102898.13;5109995;28;20123;-72
2022/10/18 09:24:10;;;;;;;6.78;2.00;;;;;;;25.14;42.84;102898.59;5092792;28;20024;-72
2022/10/18 09:26:44;;;;;;;9.93;1.92;;;;;;;24.93;43.40;102894.06;5092908;28;20052;-72
2022/10/18 09:29:43;;;;;;;5.70;1.50;;;;;;;25.12;42.13;102900.44;5093425;28;20025;-73
2022/10/18 09:32:25;;;;;;;8.27;1.55;;;;;;;25.44;42.91;102895.63;5109898;28;20055;-72
2022/10/18 09:35:05;;;;;;;12.75;1.38;;;;;;;24.98;40.75;102908.16;5094213;28;20081;-72
2022/10/18 09:37:33;;;;;;;8.90;1.60;;;;;;;25.54;40.14;102907.72;5093913;28;20051;-72
2022/10/18 09:40:11;;;;;;;10.13;1.50;;;;;;;25.61;41.18;102910.13;5094109;28;20062;-73
2022/10/18 09:42:41;;;;;;;10.98;1.45;;;;;;;24.67;42.10;102909.28;5091870;28;20111;-73
2022/10/18 09:45:25;;;;;;;7.45;0.98;;;;;;;24.61;40.91;102918.41;5092598;28;20443;-71
2022/10/18 09:48:26;;;;;;;10.73;1.42;;;;;;;24.93;41.64;102915.47;5109554;28;20035;-72
2022/10/18 09:50:59;;;;;;;8.10;0.93;;;;;;;24.73;40.44;102920.63;5108807;28;20031;-73
2022/10/18 09:53:55;;;;;;;7.95;1.35;;;;;;;25.56;40.18;102911.19;5109160;28;20515;-73
2022/10/18 09:56:28;;;;;;;10.50;1.83;;;;;;;25.19;41.28;102922.50;5109312;28;20020;-72
2022/10/18 09:58:53;;;;;;;;;;;;;;;24.96;39.35;102926.03;5109057;28;20544;-73
2022/10/18 10:01:23;;;;;;;5.78;0.98;;;;;;;24.49;41.81;102925.03;5092377;28;19908;-72
2022/10/18 10:03:48;;;;;;;11.20;1.67;;;;;;;24.94;40.65;102922.56;5092812;28;20028;-73
2022/10/18 10:06:25;;;;;;;9.52;1.65;;;;;;;24.60;41.32;102929.13;5108836;28;20028;-73
2022/10/18 10:09:14;;;;;;;8.70;0.95;;;;;;;24.82;39.53;102937.25;5109111;28;20020;-72
2022/10/18 10:11:46;;;;;;;6.75;1.10;;;;;;;25.56;39.57;102948.69;5108296;28;20016;-73
2022/10/18 10:14:18;;;;;;;6.87;1.07;;;;;;;24.32;39.84;102947.03;5108941;28;20157;-73
2022/10/18 10:16:46;;;;;;;9.63;2.08;;;;;;;24.05;40.21;102933.69;5093211;28;20020;-72
2022/10/18 10:19:31;;;;;;;6.25;1.10;;;;;;;24.39;39.37;102942.34;5108248;28;20016;-72
2022/10/18 10:22:12;;;;;;;13.77;1.85;;;;;;;25.67;37.55;102944.72;5108987;28;20081;-72
2022/10/18 10:24:48;;;;;;;9.55;1.33;;;;;;;25.35;38.74;102954.91;5108914;28;20143;-73
2022/10/18 10:27:42;;;;;;;13.75;1.58;;;;;;;24.75;39.40;102950.00;5108851;28;20024;-72
2022/10/18 10:30:30;;;;;;;7.38;1.42;;;;;;;25.36;37.71;102946.81;5091642;28;20064;-72
2022/10/18 10:32:56;;;;;;;10.32;1.80;;;;;;;25.95;36.48;102938.19;5091053;28;20038;-72
2022/10/18 10:35:38;;;;;;;14.10;2.30;;;;;;;25.93;35.99;102940.09;5091767;28;20024;-72
2022/10/18 10:38:04;;;;;;;8.18;1.70;;;;;;;25.46;37.68;102947.31;5092591;28;20042;-72
2022/10/18 10:40:36;;;;;;;10.43;2.03;;;;;;;25.56;36.74;102959.38;5107769;28;20146;-72
2022/10/18 10:43:03;;;;;;;10.95;1.45;;;;;;;25.46;36.73;102962.50;5092139;28;20498;-72
2022/10/18 10:45:35;;;;;;;9.95;1.58;;;;;;;25.79;35.95;102952.25;5108356;28;20123;-72
2022/10/18 10:48:11;;;;;;;9.75;1.15;;;;;;;25.60;37.27;102961.97;5091842;28;20061;-72
2022/10/18 10:50:59;;;;;;;6.13;1.23;;;;;;;25.91;35.06;102957.09;5108215;28;20610;-72
2022/10/18 10:53:38;;;;;;;9.43;1.50;;;;;;;25.84;36.02;102952.94;5107244;28;20142;-72
2022/10/18 10:56:05;;;;;;;5.40;1.35;;;;;;;25.83;37.33;102956.53;5108183;28;20488;-72
2022/10/18 10:58:36;;;;;;;10.35;1.40;;;;;;;25.14;36.71;102953.88;5108159;28;20031;-73
2022/10/18 11:01:20;;;;;;;7.55;1.30;;;;;;;25.35;35.17;102966.47;5091624;28;20020;-72
2022/10/18 11:03:48;;;;;;;6.78;1.67;;;;;;;25.98;34.59;102959.50;5108094;28;20023;-72
2022/10/18 11:06:43;;;;;;;11.35;2.85;;;;;;;25.11;36.39;102962.91;5107919;28;20460;-72
2022/10/18 11:09:40;;;;;;;8.73;1.20;;;;;;;24.48;35.99;102968.75;5107229;28;20050;-72
2022/10/18 11:12:27;;;;;;;12.88;1.33;;;;;;;25.31;34.43;102963.97;5090242;28;20031;-72
2022/10/18 11:15:19;;;;;;;10.02;1.35;;;;;;;26.04;34.75;102961.97;5107079;28;20506;-73
2022/10/18 11:18:00;;;;;;;10.93;1.60;;;;;;;25.35;34.84;102970.97;5090761;28;20059;-72
2022/10/18 11:20:39;;;;;;;13.68;1.63;;;;;;;26.41;33.10;102971.09;5107794;28;20056;-72
2022/10/18 11:23:12;;;;;;;10.02;1.52;;;;;;;25.14;35.26;102984.22;5106781;28;20036;-72
2022/10/18 11:25:56;;;;;;;12.80;1.52;;;;;;;25.37;34.98;102969.94;5092093;28;20479;-72
2022/10/18 11:28:33;;;;;;;7.20;1.30;;;;;;;26.09;33.79;102957.28;5106760;28;20657;-72
2022/10/18 11:31:31;;;;;;;5.68;1.20;;;;;;;25.30;34.96;102963.06;5107620;28;20024;-73
2022/10/18 11:34:18;;;;;;;10.20;2.20;;;;;;;26.20;32.90;102960.38;5090611;28;20105;-72
2022/10/18 11:37:09;;;;;;;5.28;1.00;;;;;;;25.95;32.89;102954.28;5106899;28;20024;-72